Outing, Minnesota
Current Conditions -  °F | °C
As of 8:56 PM on Wednesday 26 Nov 2014 (Local Time) from KXVG Reporting Station
Clear Clear  
Wind Chill:   Ceiling: Unl
Heat Index:   Visibility: 10mi
Dew Point: -8°   Wind: 3mph
Humidity: 72%   Direction: 310°NW
Pressure: 30.4"   Gusts: NA
Location:  46.82°N, 93.95°W
Report Text: KXVG 270256Z AUTO 31003KT 10SM CLR M18/M22 A3040 RMK AO2
Loading
Personal Weather Stations






























Interactive Weather Map New forecast layout! Learn more

10-Day Weather Forecast

Advertisements
Track Severe Weather on mobile